Time;durP1;ratioP1;P1;durP2;ratioP2;P2;SDS_P1;SDS_P2;PMS_P1;PMS_P2;Temp;Humidity;BMP_temperature;BMP_pressure;BME280_temperature;BME280_humidity;BME280_pressure;Samples;Min_cycle;Max_cycle;Signal;HPM_P1;HPM_P2
2023/06/29 00:00:20;;;;;;;8.18;5.50;;;14.90;99.90;;;;;;5013004;28;20451;-75
2023/06/29 00:02:47;;;;;;;7.47;4.97;;;14.80;99.90;;;;;;5013793;28;20894;-78
2023/06/29 00:05:13;;;;;;;6.43;4.75;;;14.60;99.90;;;;;;5032649;28;20026;-76
2023/06/29 00:07:39;;;;;;;10.82;5.28;;;14.50;99.90;;;;;;5032369;28;20382;-73
2023/06/29 00:10:06;;;;;;;7.13;4.90;;;14.30;99.90;;;;;;5018788;28;20063;-80
2023/06/29 00:12:32;;;;;;;8.60;4.85;;;14.20;99.90;;;;;;5011999;28;20034;-78
2023/06/29 00:14:57;;;;;;;10.55;5.10;;;14.30;99.90;;;;;;5011777;28;20040;-78
2023/06/29 00:17:23;;;;;;;7.38;5.13;;;14.30;99.90;;;;;;5011827;28;20061;-77
2023/06/29 00:19:49;;;;;;;8.07;5.18;;;14.40;99.90;;;;;;5011243;28;20042;-80
2023/06/29 00:22:15;;;;;;;11.88;5.43;;;14.50;99.90;;;;;;5012055;28;20104;-81
2023/06/29 00:24:44;;;;;;;7.65;5.40;;;14.50;99.90;;;;;;5010296;28;20030;-74
2023/06/29 00:27:11;;;;;;;8.30;5.15;;;14.50;99.90;;;;;;5012077;28;20441;-80
2023/06/29 00:29:39;;;;;;;6.47;4.80;;;14.50;99.90;;;;;;5012615;28;20033;-80
2023/06/29 00:32:06;;;;;;;6.40;5.03;;;14.40;99.90;;;;;;5009427;28;20034;-80
2023/06/29 00:34:31;;;;;;;6.43;5.07;;;14.40;99.90;;;;;;5010846;28;20137;-80
2023/06/29 00:36:57;;;;;;;8.82;5.50;;;14.30;99.90;;;;;;5010839;28;20116;-79
2023/06/29 00:39:22;;;;;;;7.47;4.97;;;14.20;99.90;;;;;;5012401;28;20109;-77
2023/06/29 00:41:55;;;;;;;8.07;5.45;;;14.00;99.90;;;;;;5011411;28;20129;-80
2023/06/29 00:44:22;;;;;;;8.57;5.22;;;13.90;99.90;;;;;;5011673;28;20045;-78
2023/06/29 00:46:49;;;;;;;6.30;5.10;;;13.80;99.90;;;;;;5010239;28;20096;-77
2023/06/29 00:49:15;;;;;;;7.38;4.97;;;13.70;99.90;;;;;;5009451;28;20030;-80
2023/06/29 00:51:41;;;;;;;7.28;5.13;;;13.70;99.90;;;;;;5010549;28;20041;-76
2023/06/29 00:54:07;;;;;;;8.43;5.88;;;13.60;99.90;;;;;;5011586;28;20026;-79
2023/06/29 00:56:34;;;;;;;8.18;5.50;;;13.60;99.90;;;;;;5008253;28;20031;-78
2023/06/29 00:59:00;;;;;;;10.77;5.28;;;13.60;99.90;;;;;;5008315;28;20441;-79
2023/06/29 01:01:27;;;;;;;7.03;5.30;;;13.60;99.90;;;;;;5008475;28;20038;-78
2023/06/29 01:03:56;;;;;;;7.93;5.28;;;13.60;99.90;;;;;;5008771;28;20499;-77
2023/06/29 01:06:31;;;;;;;7.47;5.10;;;13.70;99.90;;;;;;5010040;28;20120;-79
2023/06/29 01:09:05;;;;;;;7.97;5.20;;;13.80;99.90;;;;;;5010802;28;20034;-79
2023/06/29 01:11:36;;;;;;;8.88;5.93;;;13.50;99.90;;;;;;5010048;28;20109;-78
2023/06/29 01:14:05;;;;;;;8.05;5.28;;;13.40;99.90;;;;;;4993301;28;20975;-80
2023/06/29 01:16:32;;;;;;;7.70;5.25;;;13.30;99.90;;;;;;5011056;28;20073;-79
2023/06/29 01:19:00;;;;;;;7.68;5.55;;;13.30;99.90;;;;;;5009701;28;20041;-78
2023/06/29 01:21:28;;;;;;;8.40;5.72;;;13.30;99.90;;;;;;5007819;28;20033;-80
2023/06/29 01:23:56;;;;;;;7.93;5.45;;;13.30;99.90;;;;;;5005231;28;20030;-79
2023/06/29 01:26:22;;;;;;;9.18;5.70;;;13.30;99.90;;;;;;4992619;28;20036;-78
2023/06/29 01:28:53;;;;;;;8.82;5.25;;;13.20;99.90;;;;;;5009628;28;20046;-80
2023/06/29 01:31:18;;;;;;;10.60;5.75;;;13.20;99.90;;;;;;4992756;28;20428;-78
2023/06/29 01:33:45;;;;;;;10.00;5.97;;;13.20;99.90;;;;;;5010827;28;20142;-73
2023/06/29 01:36:37;;;;;;;11.45;6.15;;;13.30;99.90;;;;;;5010709;28;20107;-78
2023/06/29 01:39:13;;;;;;;8.90;5.75;;;13.40;99.90;;;;;;5008913;28;20080;-78
2023/06/29 01:41:41;;;;;;;7.60;5.63;;;13.40;99.90;;;;;;4991833;28;20033;-77
2023/06/29 01:44:11;;;;;;;8.88;6.00;;;13.40;99.90;;;;;;5010370;28;20396;-77
2023/06/29 01:46:38;;;;;;;9.27;6.18;;;13.30;99.90;;;;;;5010025;28;20033;-78
2023/06/29 01:49:05;;;;;;;6.25;5.13;;;13.20;99.90;;;;;;5010126;28;20092;-81
2023/06/29 01:51:31;;;;;;;7.35;5.22;;;13.10;99.90;;;;;;5010353;28;20030;-78
2023/06/29 01:53:57;;;;;;;9.30;5.97;;;13.00;99.90;;;;;;4990159;28;20030;-77
2023/06/29 01:56:22;;;;;;;8.73;5.55;;;12.90;99.90;;;;;;5009763;28;20037;-79
2023/06/29 01:58:48;;;;;;;10.48;5.70;;;12.90;99.90;;;;;;5010187;28;20034;-72
2023/06/29 02:01:14;;;;;;;9.70;5.93;;;13.00;99.90;;;;;;5010020;28;20026;-80
2023/06/29 02:03:39;;;;;;;9.98;5.75;;;12.90;99.90;;;;;;5009707;28;20080;-81
2023/06/29 02:06:05;;;;;;;9.38;5.75;;;12.90;99.90;;;;;;5008589;28;20038;-81
2023/06/29 02:08:31;;;;;;;9.88;6.10;;;12.80;99.90;;;;;;4993125;28;20121;-80
2023/06/29 02:10:56;;;;;;;8.18;5.85;;;12.80;99.90;;;;;;5008369;28;20022;-76
2023/06/29 02:13:22;;;;;;;14.07;6.53;;;12.80;99.90;;;;;;5010043;28;20446;-75
2023/06/29 02:15:47;;;;;;;8.20;5.80;;;12.90;99.90;;;;;;5006556;28;20034;-73
2023/06/29 02:18:13;;;;;;;9.88;6.13;;;12.90;99.90;;;;;;5004153;28;20043;-77
2023/06/29 02:20:39;;;;;;;8.80;5.97;;;12.80;99.90;;;;;;5005721;28;20378;-78
2023/06/29 02:23:04;;;;;;;9.60;6.30;;;12.90;99.90;;;;;;5007598;28;20034;-79
2023/06/29 02:25:30;;;;;;;10.88;5.88;;;12.90;99.90;;;;;;5006771;28;20036;-80
2023/06/29 02:27:56;;;;;;;8.88;6.43;;;13.00;99.90;;;;;;4990726;28;20504;-78
2023/06/29 02:30:22;;;;;;;12.77;5.90;;;12.90;99.90;;;;;;5009922;28;20033;-81
2023/06/29 02:32:47;;;;;;;10.68;6.40;;;12.80;99.90;;;;;;5009928;28;20034;-75
2023/06/29 02:35:14;;;;;;;12.13;6.47;;;12.70;99.90;;;;;;5006882;28;20473;-80
2023/06/29 02:37:40;;;;;;;8.88;6.00;;;12.50;99.90;;;;;;5009369;28;20041;-78
2023/06/29 02:40:06;;;;;;;11.43;5.78;;;12.40;99.90;;;;;;5008920;28;20051;-80
2023/06/29 02:42:32;;;;;;;8.20;6.35;;;12.40;99.90;;;;;;5009138;28;20038;-78
2023/06/29 02:44:58;;;;;;;12.60;6.22;;;12.30;99.90;;;;;;4989894;28;20034;-76
2023/06/29 02:47:23;;;;;;;11.73;6.30;;;12.30;99.90;;;;;;5005071;28;20038;-80
2023/06/29 02:49:49;;;;;;;8.10;6.00;;;12.40;99.90;;;;;;5004673;28;20117;-74
2023/06/29 02:52:14;;;;;;;8.65;5.95;;;12.40;99.90;;;;;;5006326;28;20230;-76
2023/06/29 02:54:40;;;;;;;9.68;6.72;;;12.50;99.90;;;;;;5005641;28;20117;-77
2023/06/29 02:57:06;;;;;;;10.40;6.57;;;12.50;99.90;;;;;;5005231;28;20036;-77
2023/06/29 02:59:33;;;;;;;8.80;6.53;;;12.40;99.90;;;;;;5009687;28;20029;-78
2023/06/29 03:01:58;;;;;;;10.02;6.75;;;12.30;99.90;;;;;;5006953;28;20025;-74
2023/06/29 03:04:24;;;;;;;8.90;6.50;;;12.30;99.90;;;;;;5007538;28;20053;-76
2023/06/29 03:06:49;;;;;;;9.40;6.38;;;12.30;99.90;;;;;;5007886;28;20077;-73
2023/06/29 03:09:15;;;;;;;10.70;6.20;;;12.30;99.90;;;;;;5006450;28;20497;-77
2023/06/29 03:11:41;;;;;;;10.45;6.40;;;12.30;99.90;;;;;;5007507;28;20025;-78
2023/06/29 03:14:06;;;;;;;11.32;6.45;;;12.30;99.90;;;;;;4990900;28;20080;-76
2023/06/29 03:16:32;;;;;;;8.82;6.40;;;12.10;99.90;;;;;;4996961;28;20525;-77
2023/06/29 03:18:57;;;;;;;9.27;6.53;;;12.00;99.90;;;;;;4989089;28;20109;-77
2023/06/29 03:21:23;;;;;;;9.25;6.30;;;11.90;99.90;;;;;;4989625;28;20030;-78
2023/06/29 03:23:49;;;;;;;10.15;6.00;;;11.90;99.90;;;;;;4989838;28;20085;-78
2023/06/29 03:26:15;;;;;;;9.40;6.72;;;11.90;99.90;;;;;;4988824;28;20065;-78
2023/06/29 03:28:40;;;;;;;12.23;7.25;;;11.90;99.90;;;;;;4989620;28;20463;-77
2023/06/29 03:31:06;;;;;;;11.23;7.43;;;12.00;99.90;;;;;;4988763;28;20042;-76
2023/06/29 03:33:32;;;;;;;11.18;6.82;;;12.00;99.90;;;;;;5000516;28;20054;-78
2023/06/29 03:35:57;;;;;;;10.50;6.97;;;12.00;99.90;;;;;;5008311;28;20046;-76
2023/06/29 03:38:23;;;;;;;12.43;7.20;;;12.00;99.90;;;;;;5009319;28;20382;-77
2023/06/29 03:40:48;;;;;;;10.93;6.32;;;12.00;99.90;;;;;;5009134;28;20084;-76
2023/06/29 03:43:14;;;;;;;9.35;6.53;;;12.00;99.90;;;;;;5008333;28;20084;-77
2023/06/29 03:45:40;;;;;;;9.48;6.95;;;12.00;99.90;;;;;;5009159;28;20029;-79
2023/06/29 03:48:05;;;;;;;10.88;7.00;;;12.20;99.90;;;;;;5008225;28;20383;-77
2023/06/29 03:50:31;;;;;;;14.52;7.00;;;12.20;99.90;;;;;;5009086;28;20109;-78
2023/06/29 03:52:56;;;;;;;10.50;7.10;;;12.10;99.90;;;;;;4990758;28;20140;-75
2023/06/29 03:55:24;;;;;;;11.00;6.90;;;12.10;99.90;;;;;;5009026;28;20411;-75
2023/06/29 03:57:50;;;;;;;9.85;7.55;;;12.20;99.90;;;;;;5009044;28;20033;-77
2023/06/29 04:00:16;;;;;;;10.50;7.15;;;12.20;99.90;;;;;;5008308;28;20942;-76
2023/06/29 04:02:42;;;;;;;8.63;6.30;;;12.20;99.90;;;;;;5008533;28;20062;-78
2023/06/29 04:05:08;;;;;;;14.05;7.15;;;12.20;99.90;;;;;;5008192;28;20412;-76
2023/06/29 04:07:34;;;;;;;9.88;6.85;;;12.30;99.90;;;;;;5008896;28;20096;-76
2023/06/29 04:10:00;;;;;;;13.52;6.80;;;12.30;99.90;;;;;;5008185;28;20537;-78
2023/06/29 04:12:26;;;;;;;9.95;6.75;;;12.30;99.90;;;;;;5009268;28;20037;-77
2023/06/29 04:14:52;;;;;;;11.90;6.85;;;12.30;99.90;;;;;;5009330;28;20034;-77
2023/06/29 04:17:17;;;;;;;11.00;6.75;;;12.10;99.90;;;;;;5008154;28;20413;-75
2023/06/29 04:19:43;;;;;;;10.30;7.05;;;12.20;99.90;;;;;;5008826;28;20112;-75
2023/06/29 04:22:08;;;;;;;11.57;6.57;;;12.30;99.90;;;;;;5008122;28;20056;-79
2023/06/29 04:24:34;;;;;;;12.40;7.03;;;12.30;99.90;;;;;;5008715;28;20109;-77
2023/06/29 04:27:00;;;;;;;10.98;6.57;;;12.40;99.90;;;;;;5007920;28;20053;-76
2023/06/29 04:29:26;;;;;;;10.15;6.72;;;12.40;99.90;;;;;;5008698;28;20041;-78
2023/06/29 04:31:54;;;;;;;10.50;6.38;;;12.50;99.90;;;;;;5008534;28;20470;-79
2023/06/29 04:34:20;;;;;;;13.57;7.68;;;12.70;99.90;;;;;;5006975;28;20502;-77
2023/06/29 04:36:46;;;;;;;9.65;7.25;;;12.90;99.90;;;;;;5008719;28;20109;-78
2023/06/29 04:39:15;;;;;;;11.80;7.38;;;13.00;99.90;;;;;;5010814;28;20030;-77
2023/06/29 04:41:41;;;;;;;14.60;6.60;;;13.10;99.90;;;;;;5011583;28;20029;-77
2023/06/29 04:44:10;;;;;;;10.95;6.78;;;13.20;99.90;;;;;;5011792;28;20460;-78
2023/06/29 04:46:39;;;;;;;10.00;7.47;;;13.40;99.90;;;;;;5012011;28;20095;-79
2023/06/29 04:49:06;;;;;;;11.73;7.82;;;13.50;99.90;;;;;;5011455;28;20370;-78
2023/06/29 04:51:34;;;;;;;9.88;6.88;;;13.50;99.90;;;;;;5011940;28;20022;-79
2023/06/29 04:54:00;;;;;;;10.70;6.95;;;13.60;99.90;;;;;;5011221;28;20030;-78
2023/06/29 04:56:26;;;;;;;13.23;6.72;;;13.70;99.90;;;;;;5012070;28;20533;-78
2023/06/29 04:58:51;;;;;;;11.25;7.53;;;13.80;99.90;;;;;;5012063;28;20105;-77
2023/06/29 05:01:17;;;;;;;13.52;7.40;;;14.00;99.90;;;;;;5011266;28;20102;-79
2023/06/29 05:03:43;;;;;;;10.73;7.53;;;13.90;99.90;;;;;;5011833;28;20403;-78
2023/06/29 05:06:08;;;;;;;15.73;8.13;;;14.00;99.90;;;;;;5010939;28;20045;-79
2023/06/29 05:08:34;;;;;;;12.93;7.72;;;14.00;99.90;;;;;;5011790;28;20037;-77
2023/06/29 05:10:59;;;;;;;10.13;6.78;;;13.90;99.90;;;;;;5011238;28;20105;-73
2023/06/29 05:13:25;;;;;;;10.55;7.32;;;13.90;99.90;;;;;;5010337;28;20113;-77
2023/06/29 05:15:51;;;;;;;10.32;7.22;;;14.20;99.90;;;;;;5012027;28;20034;-78
2023/06/29 05:18:17;;;;;;;11.10;7.50;;;14.30;99.90;;;;;;5011079;28;20034;-77
2023/06/29 05:20:43;;;;;;;12.57;7.95;;;14.50;99.90;;;;;;5010259;28;20102;-77
2023/06/29 05:23:11;;;;;;;12.15;6.95;;;14.60;99.90;;;;;;5010558;28;20057;-78
2023/06/29 05:25:39;;;;;;;11.52;7.65;;;14.90;99.90;;;;;;5011512;28;20529;-77
2023/06/29 05:28:05;;;;;;;9.68;7.40;;;15.10;99.90;;;;;;5010694;28;20044;-78
2023/06/29 05:30:30;;;;;;;11.18;7.15;;;15.10;99.90;;;;;;4977388;28;20450;-79
2023/06/29 05:32:56;;;;;;;9.43;7.18;;;15.30;99.90;;;;;;5011043;28;20105;-76
2023/06/29 05:35:22;;;;;;;12.10;7.07;;;15.30;99.90;;;;;;5008960;28;20038;-77
2023/06/29 05:37:47;;;;;;;9.75;7.65;;;15.40;99.90;;;;;;5011331;28;20196;-77
2023/06/29 05:40:13;;;;;;;10.20;8.15;;;15.40;99.90;;;;;;5010513;28;20037;-77
2023/06/29 05:42:39;;;;;;;11.82;8.15;;;15.50;99.90;;;;;;5011157;28;20084;-78
2023/06/29 05:45:05;;;;;;;17.33;9.20;;;15.80;99.90;;;;;;5010260;28;20026;-78
2023/06/29 05:47:31;;;;;;;16.63;8.63;;;16.00;99.90;;;;;;5010634;28;20387;-78
2023/06/29 05:49:57;;;;;;;11.77;8.60;;;16.20;99.90;;;;;;5011096;28;20049;-77
2023/06/29 05:52:22;;;;;;;11.40;7.93;;;16.20;99.90;;;;;;5009078;28;20030;-74
2023/06/29 05:54:48;;;;;;;11.30;7.88;;;16.30;99.90;;;;;;5010948;28;20038;-77
2023/06/29 05:57:13;;;;;;;8.98;7.22;;;16.40;99.90;;;;;;5010215;28;20030;-77
2023/06/29 05:59:39;;;;;;;10.13;7.00;;;16.50;99.90;;;;;;5010803;28;20022;-77
2023/06/29 06:02:05;;;;;;;8.48;6.80;;;16.60;99.90;;;;;;5007772;28;20832;-76
2023/06/29 06:04:31;;;;;;;9.98;7.40;;;16.80;99.90;;;;;;5011033;28;20045;-78
2023/06/29 06:06:56;;;;;;;10.48;6.78;;;16.90;99.90;;;;;;5010609;28;20030;-78
2023/06/29 06:09:22;;;;;;;11.20;7.07;;;17.20;99.90;;;;;;5010032;28;20682;-79
2023/06/29 06:11:48;;;;;;;12.40;6.50;;;17.50;99.90;;;;;;5010455;28;20116;-76
2023/06/29 06:14:13;;;;;;;9.93;6.78;;;17.70;99.90;;;;;;5009831;28;20037;-79
2023/06/29 06:16:39;;;;;;;9.35;6.65;;;17.90;99.90;;;;;;5010501;28;20026;-77
2023/06/29 06:19:05;;;;;;;11.48;6.63;;;18.00;99.90;;;;;;5009735;28;20066;-74
2023/06/29 06:21:30;;;;;;;9.35;6.22;;;18.20;99.90;;;;;;5010284;28;20037;-78
2023/06/29 06:23:56;;;;;;;8.63;6.47;;;18.30;99.90;;;;;;5010562;28;20037;-77
2023/06/29 06:26:22;;;;;;;12.55;6.55;;;18.40;99.90;;;;;;5009018;28;20030;-77
2023/06/29 06:28:51;;;;;;;9.50;6.28;;;18.60;99.90;;;;;;5010139;28;20043;-76
2023/06/29 06:31:17;;;;;;;10.88;6.10;;;18.80;99.90;;;;;;5009263;28;20725;-79
2023/06/29 06:33:43;;;;;;;10.13;5.65;;;18.80;99.90;;;;;;5010121;28;20046;-78
2023/06/29 06:36:09;;;;;;;11.10;6.10;;;19.00;99.90;;;;;;5009336;28;20026;-78
2023/06/29 06:38:34;;;;;;;9.48;5.78;;;19.30;99.90;;;;;;5010015;28;20038;-79
2023/06/29 06:41:00;;;;;;;8.68;5.65;;;19.40;99.90;;;;;;5010068;28;20026;-78
2023/06/29 06:43:25;;;;;;;6.70;5.80;;;19.60;99.90;;;;;;5008277;28;20109;-79
2023/06/29 06:45:52;;;;;;;14.77;5.97;;;19.80;99.90;;;;;;5009947;28;20064;-79
2023/06/29 06:48:18;;;;;;;8.02;5.43;;;19.90;99.90;;;;;;5008835;28;20566;-77
2023/06/29 06:50:44;;;;;;;7.25;4.70;;;20.20;99.90;;;;;;5009845;28;20044;-80
2023/06/29 06:53:10;;;;;;;9.20;4.80;;;20.40;99.90;;;;;;5009083;28;20348;-78
2023/06/29 06:55:35;;;;;;;11.32;5.45;;;20.70;99.90;;;;;;5009862;28;20119;-78
2023/06/29 06:58:01;;;;;;;10.02;4.68;;;21.10;99.90;;;;;;5009772;28;20439;-78
2023/06/29 07:00:27;;;;;;;5.57;4.13;;;21.30;99.90;;;;;;5008542;28;20704;-79
2023/06/29 07:02:53;;;;;;;6.90;4.40;;;21.50;99.90;;;;;;5009196;28;20057;-79
2023/06/29 07:05:18;;;;;;;10.55;3.40;;;21.70;99.90;;;;;;5009069;28;20599;-81
2023/06/29 07:07:46;;;;;;;5.03;2.70;;;21.90;99.00;;;;;;5009605;28;20030;-79
2023/06/29 07:10:12;;;;;;;5.53;2.97;;;22.00;96.40;;;;;;5008727;28;20395;-77
2023/06/29 07:12:38;;;;;;;9.65;3.22;;;22.20;95.80;;;;;;5009504;28;20065;-73
2023/06/29 07:15:05;;;;;;;4.88;2.63;;;22.40;94.80;;;;;;5007963;28;20030;-74
2023/06/29 07:17:30;;;;;;;7.85;2.38;;;22.60;92.90;;;;;;5009117;28;20034;-78
2023/06/29 07:19:56;;;;;;;5.18;2.92;;;22.70;93.30;;;;;;5009507;28;20033;-78
2023/06/29 07:22:22;;;;;;;5.00;3.13;;;23.00;96.80;;;;;;5008416;28;20022;-78
2023/06/29 07:24:47;;;;;;;8.57;3.17;;;23.10;94.60;;;;;;5009370;28;20041;-76
2023/06/29 07:27:13;;;;;;;6.90;3.15;;;23.10;95.30;;;;;;5007636;28;20447;-75
2023/06/29 07:29:42;;;;;;;8.60;3.20;;;23.20;94.20;;;;;;5008366;28;20394;-76
2023/06/29 07:32:09;;;;;;;5.68;3.47;;;23.20;94.60;;;;;;5008379;28;20068;-72
2023/06/29 07:34:34;;;;;;;7.85;2.95;;;23.20;93.60;;;;;;5009243;28;20104;-76
2023/06/29 07:37:00;;;;;;;7.03;3.22;;;23.20;93.70;;;;;;5009177;28;20341;-79
2023/06/29 07:39:27;;;;;;;10.20;3.00;;;23.00;92.90;;;;;;5008451;28;20247;-78
2023/06/29 07:41:53;;;;;;;3.85;2.78;;;23.20;93.20;;;;;;5008921;28;20068;-77
2023/06/29 07:44:18;;;;;;;7.20;3.33;;;23.50;91.00;;;;;;5008389;28;20467;-75
2023/06/29 07:46:44;;;;;;;7.63;3.50;;;23.60;92.60;;;;;;5008991;28;20371;-78
2023/06/29 07:49:10;;;;;;;6.95;3.17;;;23.90;92.70;;;;;;5007378;28;20038;-76
2023/06/29 07:51:35;;;;;;;7.40;3.60;;;24.00;91.70;;;;;;5009127;28;20050;-77
2023/06/29 07:54:02;;;;;;;7.03;3.35;;;24.00;91.50;;;;;;5008953;28;20037;-77
2023/06/29 07:56:28;;;;;;;10.68;3.15;;;24.10;91.80;;;;;;5008061;28;20245;-76
2023/06/29 07:58:54;;;;;;;6.38;3.50;;;24.20;90.60;;;;;;5009039;28;20030;-79
2023/06/29 08:01:20;;;;;;;7.18;2.63;;;24.30;89.60;;;;;;5007938;28;20092;-79
2023/06/29 08:03:45;;;;;;;3.55;2.75;;;24.50;87.80;;;;;;5008906;28;20498;-75
2023/06/29 08:06:11;;;;;;;4.85;2.75;;;24.40;86.50;;;;;;5008032;28;20455;-75
2023/06/29 08:08:38;;;;;;;5.40;3.08;;;24.40;86.20;;;;;;5008789;28;20497;-76
2023/06/29 08:11:03;;;;;;;7.53;2.90;;;24.70;86.30;;;;;;5009351;28;20104;-75
2023/06/29 08:13:29;;;;;;;7.00;3.20;;;25.10;84.10;;;;;;5008486;28;20029;-75
2023/06/29 08:15:55;;;;;;;4.18;3.10;;;25.00;79.80;;;;;;5013055;28;20030;-77
2023/06/29 08:18:21;;;;;;;8.02;3.00;;;24.90;80.80;;;;;;5010244;28;20060;-75
2023/06/29 08:20:46;;;;;;;5.20;2.90;;;25.00;82.30;;;;;;5012888;28;20045;-77
2023/06/29 08:23:14;;;;;;;10.75;3.28;;;25.40;80.40;;;;;;5010397;28;20669;-79
2023/06/29 08:25:39;;;;;;;7.38;2.63;;;25.50;81.30;;;;;;5012643;28;20374;-79
2023/06/29 08:28:05;;;;;;;7.50;2.83;;;25.40;79.50;;;;;;5011121;28;20542;-77
2023/06/29 08:30:31;;;;;;;6.30;3.00;;;25.50;80.90;;;;;;5011344;28;20084;-75
2023/06/29 08:32:56;;;;;;;5.75;3.10;;;25.40;79.00;;;;;;5012223;28;20486;-75
2023/06/29 08:35:22;;;;;;;8.90;2.83;;;24.90;79.30;;;;;;5011721;28;20057;-78
2023/06/29 08:37:48;;;;;;;4.97;2.83;;;24.80;78.60;;;;;;5012359;28;20045;-73
2023/06/29 08:40:18;;;;;;;6.65;2.70;;;24.80;81.20;;;;;;5011255;28;20033;-73
2023/06/29 08:42:44;;;;;;;;;;;25.20;80.20;;;;;;5011453;28;20453;-75
2023/06/29 08:45:10;;;;;;;9.48;3.03;;;25.00;77.00;;;;;;5012338;28;19992;-73
2023/06/29 08:47:37;;;;;;;5.00;2.67;;;24.80;77.60;;;;;;5011417;28;20133;-75
2023/06/29 08:50:04;;;;;;;5.65;2.47;;;24.80;80.30;;;;;;5012186;28;20030;-75
2023/06/29 08:52:34;;;;;;;5.80;2.60;;;24.90;78.90;;;;;;5010964;28;20601;-75
2023/06/29 08:55:01;;;;;;;6.07;2.83;;;25.10;76.80;;;;;;5011904;28;20470;-73
2023/06/29 08:57:29;;;;;;;4.57;2.85;;;25.00;77.70;;;;;;5010404;28;20042;-75
2023/06/29 08:59:55;;;;;;;6.50;3.10;;;25.20;78.50;;;;;;5010423;28;20076;-76
2023/06/29 09:02:21;;;;;;;4.95;2.70;;;25.20;77.30;;;;;;5010712;28;20034;-77
2023/06/29 09:04:47;;;;;;;6.60;3.00;;;25.20;76.10;;;;;;5011586;28;20045;-75
2023/06/29 09:20:34;;;;;;;6.80;2.50;;;25.40;76.90;;;;;;5089960;27;20458;-74
2023/06/29 09:23:04;;;;;;;8.77;2.88;;;26.30;72.80;;;;;;5065230;28;20043;-76
2023/06/29 09:25:32;;;;;;;3.63;2.85;;;26.50;71.70;;;;;;5065992;28;20039;-74
2023/06/29 09:28:04;;;;;;;6.75;2.70;;;26.60;69.50;;;;;;5065561;28;20112;-74
2023/06/29 09:30:35;;;;;;;6.57;2.88;;;26.60;69.00;;;;;;5066474;28;20436;-76
2023/06/29 09:33:11;;;;;;;7.50;3.40;;;26.70;70.90;;;;;;5066326;28;20493;-74
2023/06/29 09:35:44;;;;;;;7.38;2.85;;;26.50;70.00;;;;;;5065559;28;20407;-73
2023/06/29 09:38:10;;;;;;;9.73;2.83;;;26.10;72.70;;;;;;5066369;28;20043;-74
2023/06/29 09:40:53;;;;;;;6.03;2.90;;;25.70;74.30;;;;;;5065891;28;20021;-72
2023/06/29 09:43:25;;;;;;;4.45;2.63;;;25.50;73.50;;;;;;5065934;28;20025;-76
2023/06/29 09:45:52;;;;;;;7.95;3.38;;;25.30;74.30;;;;;;5065346;28;20033;-76
2023/06/29 09:48:21;;;;;;;7.13;3.42;;;25.20;74.20;;;;;;5065934;28;20033;-75
2023/06/29 09:50:53;;;;;;;9.82;2.97;;;25.10;74.10;;;;;;5063901;28;20052;-74
2023/06/29 09:53:33;;;;;;;7.18;3.30;;;25.10;77.20;;;;;;5066022;28;20032;-75
2023/06/29 09:56:00;;;;;;;5.13;2.78;;;25.20;73.80;;;;;;5064018;28;20017;-76
2023/06/29 09:58:29;;;;;;;6.68;3.28;;;25.40;74.70;;;;;;5064815;28;20079;-74
2023/06/29 10:00:58;;;;;;;6.90;3.00;;;25.40;72.30;;;;;;5064805;28;20028;-72
2023/06/29 10:03:26;;;;;;;5.88;3.13;;;25.60;71.80;;;;;;5065819;28;20024;-76
2023/06/29 10:05:58;;;;;;;5.03;3.00;;;25.70;76.20;;;;;;5064897;28;20025;-74
2023/06/29 10:08:27;;;;;;;3.97;3.00;;;25.80;73.30;;;;;;5064461;28;20043;-76
2023/06/29 10:11:00;;;;;;;8.80;3.30;;;26.00;72.70;;;;;;5064833;28;20115;-76
2023/06/29 10:13:26;;;;;;;5.25;3.03;;;26.20;72.20;;;;;;5065440;28;20429;-74
2023/06/29 10:15:54;;;;;;;7.82;2.78;;;26.20;73.10;;;;;;5064925;28;20032;-78
2023/06/29 10:18:28;;;;;;;3.80;2.45;;;26.20;73.20;;;;;;5064937;28;20044;-74
2023/06/29 10:20:54;;;;;;;5.50;2.85;;;26.70;68.60;;;;;;5054510;28;20025;-74
2023/06/29 10:23:20;;;;;;;5.07;2.80;;;26.80;67.70;;;;;;5052333;28;20056;-77
2023/06/29 10:25:49;;;;;;;6.15;3.10;;;26.80;68.30;;;;;;5051649;28;20020;-76
2023/06/29 10:28:15;;;;;;;6.13;2.63;;;27.30;69.80;;;;;;5053977;28;20031;-77
2023/06/29 10:30:46;;;;;;;6.03;3.20;;;27.80;67.80;;;;;;5060568;28;20036;-74
2023/06/29 10:33:12;;;;;;;11.52;2.90;;;27.80;69.80;;;;;;5032055;28;20029;-77
2023/06/29 10:35:38;;;;;;;5.70;3.22;;;27.80;68.00;;;;;;5063543;28;20452;-74
2023/06/29 10:38:12;;;;;;;7.43;3.17;;;28.00;67.60;;;;;;5031874;28;20037;-76
2023/06/29 10:40:48;;;;;;;4.90;3.05;;;28.30;65.90;;;;;;5070271;28;20037;-73
2023/06/29 10:43:14;;;;;;;5.18;3.08;;;28.10;64.90;;;;;;5064339;28;20033;-75
2023/06/29 10:45:40;;;;;;;5.75;3.35;;;28.20;68.20;;;;;;5083473;28;20378;-74
2023/06/29 10:48:08;;;;;;;5.88;3.35;;;28.50;68.00;;;;;;5051307;28;20048;-76
2023/06/29 10:50:46;;;;;;;7.78;2.88;;;28.40;65.90;;;;;;5066250;28;20063;-77
2023/06/29 10:53:19;;;;;;;7.20;2.95;;;28.00;67.10;;;;;;5071450;28;20029;-77
2023/06/29 10:55:53;;;;;;;5.93;3.08;;;27.70;67.50;;;;;;5070762;28;20024;-73
2023/06/29 10:58:26;;;;;;;5.75;3.17;;;28.10;63.30;;;;;;5071459;28;20150;-76
2023/06/29 11:00:53;;;;;;;7.88;3.15;;;28.40;64.90;;;;;;5063328;28;20035;-74
2023/06/29 11:03:21;;;;;;;5.53;3.25;;;28.10;65.70;;;;;;5071219;28;20028;-74
2023/06/29 11:05:54;;;;;;;4.30;3.08;;;27.60;66.30;;;;;;5070698;28;20048;-74
2023/06/29 11:08:21;;;;;;;4.53;3.00;;;27.40;67.00;;;;;;5071291;28;20045;-77
2023/06/29 11:10:47;;;;;;;4.20;3.30;;;27.30;67.70;;;;;;5057770;28;20040;-75
2023/06/29 11:13:12;;;;;;;5.25;2.80;;;27.40;65.80;;;;;;5050766;28;20071;-77
2023/06/29 11:15:39;;;;;;;5.10;3.00;;;27.70;66.60;;;;;;5051135;28;20049;-75
2023/06/29 11:18:07;;;;;;;5.07;2.92;;;27.90;66.80;;;;;;5050412;28;20045;-75
2023/06/29 11:20:35;;;;;;;4.00;3.08;;;28.10;62.90;;;;;;5050399;28;20017;-77
2023/06/29 11:23:01;;;;;;;4.75;2.95;;;28.10;62.00;;;;;;5050134;28;20025;-77
2023/06/29 11:25:28;;;;;;;9.82;3.00;;;28.30;63.50;;;;;;5050972;28;20036;-73
2023/06/29 11:27:54;;;;;;;11.30;2.90;;;28.50;67.40;;;;;;5049886;28;20029;-76
2023/06/29 11:30:20;;;;;;;8.60;3.38;;;29.00;64.30;;;;;;5050863;28;20079;-75
2023/06/29 11:32:49;;;;;;;5.65;2.80;;;29.50;62.00;;;;;;5049088;28;20025;-77
2023/06/29 11:35:15;;;;;;;4.30;2.47;;;29.80;60.70;;;;;;5050519;28;20116;-75
2023/06/29 11:37:41;;;;;;;3.80;2.90;;;30.00;60.40;;;;;;5050293;28;20104;-73
2023/06/29 11:40:21;;;;;;;4.00;2.83;;;29.90;61.00;;;;;;5050219;28;20025;-76
2023/06/29 11:42:48;;;;;;;4.95;2.90;;;29.30;61.00;;;;;;5049418;28;20505;-74
2023/06/29 11:45:15;;;;;;;7.30;2.95;;;28.70;60.40;;;;;;5050485;28;20032;-77
2023/06/29 11:47:42;;;;;;;4.03;2.78;;;28.30;62.60;;;;;;5049054;28;20226;-73
2023/06/29 11:50:10;;;;;;;4.93;2.78;;;27.60;64.00;;;;;;5050103;28;20037;-74
2023/06/29 11:52:39;;;;;;;5.13;3.28;;;27.20;65.70;;;;;;5050330;28;20078;-76
2023/06/29 11:55:07;;;;;;;7.75;3.33;;;27.20;67.30;;;;;;5049449;28;20021;-75
2023/06/29 11:57:34;;;;;;;7.30;3.08;;;27.30;65.40;;;;;;5050302;28;20021;-75
2023/06/29 12:00:08;;;;;;;3.17;2.75;;;27.50;64.70;;;;;;5049446;28;20036;-73
2023/06/29 12:02:34;;;;;;;8.57;3.17;;;27.90;63.80;;;;;;5050238;28;20025;-74
2023/06/29 12:05:04;;;;;;;3.50;2.90;;;27.70;65.60;;;;;;5049211;28;20048;-72
2023/06/29 12:07:40;;;;;;;5.60;2.97;;;28.10;66.20;;;;;;5050215;28;20399;-75
2023/06/29 12:10:11;;;;;;;5.35;3.00;;;28.20;62.90;;;;;;5049183;28;20116;-75
2023/06/29 12:12:45;;;;;;;7.07;3.50;;;28.60;62.90;;;;;;5049885;28;20046;-75
2023/06/29 12:15:19;;;;;;;6.07;2.95;;;28.80;62.30;;;;;;5048384;28;20051;-74
2023/06/29 12:17:50;;;;;;;5.05;3.00;;;28.50;62.50;;;;;;5049748;28;20036;-74
2023/06/29 12:20:18;;;;;;;13.20;3.45;;;28.00;64.60;;;;;;5049883;28;20064;-74
2023/06/29 12:22:45;;;;;;;5.03;3.25;;;28.10;62.30;;;;;;5049587;28;20082;-72
2023/06/29 12:25:13;;;;;;;5.18;2.80;;;28.40;62.80;;;;;;5049491;28;20460;-74
2023/06/29 12:27:40;;;;;;;5.00;3.33;;;28.70;60.90;;;;;;5049790;28;20371;-75
2023/06/29 12:30:06;;;;;;;10.32;3.05;;;28.70;60.90;;;;;;5048764;28;20103;-75
2023/06/29 12:32:32;;;;;;;5.88;3.20;;;28.50;59.60;;;;;;5049456;28;20040;-77
2023/06/29 12:34:58;;;;;;;7.38;3.33;;;28.50;62.20;;;;;;5048693;28;20383;-74
2023/06/29 12:37:24;;;;;;;7.07;3.45;;;28.30;60.20;;;;;;5049396;28;20036;-76
2023/06/29 12:39:49;;;;;;;4.97;3.13;;;28.10;62.50;;;;;;5047414;28;20036;-75
2023/06/29 12:42:15;;;;;;;6.63;3.28;;;27.90;63.30;;;;;;5049535;28;20367;-73
2023/06/29 12:44:40;;;;;;;5.28;2.85;;;27.80;63.00;;;;;;5049072;28;20382;-73
2023/06/29 12:47:06;;;;;;;3.75;3.20;;;28.00;64.40;;;;;;5048368;28;20639;-78
2023/06/29 12:49:32;;;;;;;6.68;3.40;;;28.20;64.80;;;;;;5043306;28;20037;-78
2023/06/29 12:51:57;;;;;;;4.80;3.10;;;28.50;61.80;;;;;;5047387;28;20025;-75
2023/06/29 12:54:24;;;;;;;7.97;3.67;;;28.60;61.20;;;;;;5038109;28;20025;-75